createdAt,value
2018-11-25T00:02:16.264Z,5.00
2018-11-25T00:04:44.100Z,5.00
2018-11-25T00:07:11.980Z,5.00
2018-11-25T00:09:39.825Z,5.00
2018-11-25T00:12:07.795Z,5.00
2018-11-25T00:14:35.660Z,5.00
2018-11-25T00:17:03.515Z,5.00
2018-11-25T00:19:31.512Z,4.90
2018-11-25T00:21:59.381Z,4.90
2018-11-25T00:24:27.262Z,4.90
2018-11-25T00:26:55.388Z,4.90
2018-11-25T00:29:23.368Z,5.00
2018-11-25T00:31:51.242Z,5.00
2018-11-25T00:34:19.055Z,5.00
2018-11-25T00:36:46.914Z,5.00
2018-11-25T00:39:14.816Z,5.00
2018-11-25T00:41:43.796Z,4.90
2018-11-25T00:44:11.582Z,4.90
2018-11-25T00:46:39.420Z,4.90
2018-11-25T00:49:07.216Z,4.90
2018-11-25T00:51:37.145Z,5.00
2018-11-25T00:54:05.284Z,5.00
2018-11-25T00:56:33.176Z,4.90
2018-11-25T00:59:01.123Z,4.90
2018-11-25T01:01:28.989Z,4.90
2018-11-25T01:03:56.836Z,4.90
2018-11-25T01:06:24.804Z,4.90
2018-11-25T01:08:52.648Z,4.90
2018-11-25T01:11:20.552Z,4.90
2018-11-25T01:13:48.468Z,4.90
2018-11-25T01:16:16.426Z,4.90
2018-11-25T01:18:44.446Z,4.90
2018-11-25T01:21:12.414Z,4.90
2018-11-25T01:23:40.266Z,4.90
2018-11-25T01:26:08.098Z,5.00
2018-11-25T01:28:35.924Z,5.00
2018-11-25T01:31:03.925Z,5.00
2018-11-25T01:33:31.739Z,5.00
2018-11-25T01:35:59.560Z,5.00
2018-11-25T01:38:27.413Z,5.00
2018-11-25T01:40:55.269Z,5.00
2018-11-25T01:43:23.126Z,5.00
2018-11-25T01:45:50.958Z,5.00
2018-11-25T01:48:18.830Z,4.90
2018-11-25T01:50:47.242Z,4.90
2018-11-25T01:53:15.083Z,4.90
2018-11-25T01:55:42.912Z,4.80
2018-11-25T01:58:10.904Z,4.80
2018-11-25T02:00:38.860Z,4.80
2018-11-25T02:03:06.682Z,4.80
2018-11-25T02:05:34.590Z,4.80
2018-11-25T02:08:02.450Z,4.80
2018-11-25T02:10:30.344Z,4.80
2018-11-25T02:12:58.151Z,4.80
2018-11-25T02:15:26.018Z,4.80
2018-11-25T02:17:53.862Z,4.80
2018-11-25T02:20:22.810Z,4.80
2018-11-25T02:22:52.469Z,4.80
2018-11-25T02:25:20.327Z,4.80
2018-11-25T02:27:48.287Z,4.80
2018-11-25T02:30:16.980Z,4.80
2018-11-25T02:32:45.208Z,4.90
2018-11-25T02:35:13.815Z,4.90
2018-11-25T02:37:41.723Z,4.80
2018-11-25T02:42:59.610Z,4.90
2018-11-25T02:45:27.970Z,4.90
2018-11-25T02:47:55.790Z,4.80
2018-11-25T02:50:27.676Z,4.80
2018-11-25T02:52:56.778Z,4.80
2018-11-25T02:55:25.531Z,4.80
2018-11-25T02:57:53.430Z,4.80
2018-11-25T03:00:23.923Z,4.80
2018-11-25T03:02:51.864Z,4.80
2018-11-25T03:05:19.758Z,4.80
2018-11-25T03:07:47.624Z,4.80
2018-11-25T03:10:15.536Z,4.80
2018-11-25T03:12:43.392Z,4.80
2018-11-25T03:15:12.756Z,4.80
2018-11-25T03:17:40.584Z,4.80
2018-11-25T03:20:11.204Z,4.80
2018-11-25T03:22:39.054Z,4.80
2018-11-25T03:25:16.246Z,4.80
2018-11-25T03:27:44.217Z,4.80
2018-11-25T03:30:15.020Z,4.80
2018-11-25T03:32:43.420Z,4.80
2018-11-25T03:35:12.071Z,4.80
2018-11-25T03:37:39.884Z,4.80
2018-11-25T03:40:09.738Z,4.80
2018-11-25T03:42:37.665Z,4.80
2018-11-25T03:45:08.028Z,4.80
2018-11-25T03:47:35.893Z,4.80
2018-11-25T03:50:04.242Z,4.80
2018-11-25T03:52:32.106Z,4.80
2018-11-25T03:55:00.048Z,4.80
2018-11-25T03:57:27.944Z,4.80
2018-11-25T03:59:55.773Z,4.80
2018-11-25T04:02:23.633Z,4.80
2018-11-25T04:07:18.665Z,4.80
2018-11-25T04:09:46.714Z,4.80
2018-11-25T04:12:15.219Z,4.80
2018-11-25T04:14:43.080Z,4.80
2018-11-25T04:17:10.925Z,4.80
2018-11-25T04:19:38.768Z,4.80
2018-11-25T04:22:07.590Z,4.80
2018-11-25T04:24:35.397Z,4.80
2018-11-25T04:27:03.212Z,4.80
2018-11-25T04:29:31.074Z,4.80
2018-11-25T04:31:59.142Z,4.80
2018-11-25T04:34:27.089Z,4.80
2018-11-25T04:36:54.904Z,4.80
2018-11-25T04:39:22.768Z,4.80
2018-11-25T04:41:51.718Z,4.80
2018-11-25T04:44:19.553Z,4.80
2018-11-25T04:46:47.456Z,4.80
2018-11-25T04:49:15.321Z,4.80
2018-11-25T04:51:43.116Z,4.80
2018-11-25T04:54:11.036Z,4.80
2018-11-25T04:56:38.874Z,4.80
2018-11-25T04:59:06.724Z,4.80
2018-11-25T05:01:34.576Z,4.70
2018-11-25T05:04:03.162Z,4.80
2018-11-25T05:06:30.988Z,4.80
2018-11-25T05:08:58.827Z,4.80
2018-11-25T05:11:26.653Z,4.80
2018-11-25T05:13:55.142Z,4.80
2018-11-25T05:16:23.158Z,4.70
2018-11-25T05:18:51.648Z,4.80
2018-11-25T05:21:19.516Z,4.80
2018-11-25T05:23:47.594Z,4.80
2018-11-25T05:26:15.437Z,4.80
2018-11-25T05:28:43.308Z,4.80
2018-11-25T05:31:11.148Z,4.80
2018-11-25T05:33:38.979Z,4.70
2018-11-25T05:36:06.868Z,4.80
2018-11-25T05:38:34.761Z,4.80
2018-11-25T05:41:02.573Z,4.80
2018-11-25T05:43:30.403Z,4.80
2018-11-25T05:45:58.247Z,4.80
2018-11-25T05:48:26.135Z,4.80
2018-11-25T05:50:54.021Z,4.80
2018-11-25T05:53:21.874Z,4.70
2018-11-25T05:55:49.782Z,4.70
2018-11-25T05:58:17.632Z,4.70
2018-11-25T06:00:45.552Z,4.60
2018-11-25T06:03:13.314Z,4.60
2018-11-25T06:05:41.118Z,4.60
2018-11-25T06:08:08.949Z,4.60
2018-11-25T06:10:36.776Z,4.50
2018-11-25T06:13:05.642Z,4.50
2018-11-25T06:15:33.505Z,4.60
2018-11-25T06:18:01.308Z,4.60
2018-11-25T06:20:29.157Z,4.60
2018-11-25T06:22:57.016Z,4.60
2018-11-25T06:25:25.091Z,4.60
2018-11-25T06:27:52.971Z,4.60
2018-11-25T06:30:20.977Z,4.60
2018-11-25T06:32:49.020Z,4.60
2018-11-25T06:35:17.831Z,4.60
2018-11-25T06:37:46.561Z,4.60
2018-11-25T06:40:15.264Z,4.60
2018-11-25T06:42:43.125Z,4.70
2018-11-25T06:45:13.727Z,4.70
2018-11-25T06:47:41.540Z,4.70
2018-11-25T06:50:12.448Z,4.70
2018-11-25T06:52:39.371Z,4.60
2018-11-25T06:55:08.807Z,4.60
2018-11-25T06:57:36.808Z,4.60
2018-11-25T07:00:14.843Z,4.60
2018-11-25T07:02:43.457Z,4.60
2018-11-25T07:05:11.462Z,4.60
2018-11-25T07:07:39.337Z,4.60
2018-11-25T07:10:17.582Z,4.60
2018-11-25T07:12:45.685Z,4.60
2018-11-25T07:15:17.190Z,4.70
2018-11-25T07:17:45.104Z,4.60
2018-11-25T07:20:14.970Z,4.60
2018-11-25T07:22:42.825Z,4.60
2018-11-25T07:25:12.855Z,4.70
2018-11-25T07:27:40.679Z,4.70
2018-11-25T07:30:19.103Z,4.60
2018-11-25T07:32:47.116Z,4.60
2018-11-25T07:35:15.049Z,4.70
2018-11-25T07:37:42.945Z,4.70
2018-11-25T07:40:15.074Z,4.70
2018-11-25T07:42:43.016Z,4.70
2018-11-25T07:45:12.295Z,4.70
2018-11-25T07:47:40.128Z,4.70
2018-11-25T07:50:09.375Z,4.60
2018-11-25T07:52:37.310Z,4.60
2018-11-25T07:55:10.823Z,4.60
2018-11-25T07:57:38.845Z,4.60
2018-11-25T08:00:11.575Z,4.60
2018-11-25T08:02:41.562Z,4.60
2018-11-25T08:05:08.621Z,4.60
2018-11-25T08:07:36.547Z,4.60
2018-11-25T08:10:07.026Z,4.60
2018-11-25T08:12:34.863Z,4.60
2018-11-25T08:15:02.760Z,4.60
2018-11-25T08:17:30.697Z,4.60
2018-11-25T08:19:58.515Z,4.60
2018-11-25T08:22:26.325Z,4.60
2018-11-25T08:24:57.817Z,4.50
2018-11-25T08:27:26.587Z,4.60
2018-11-25T08:29:54.434Z,4.60
2018-11-25T08:32:22.296Z,4.60
2018-11-25T08:34:50.114Z,4.50
2018-11-25T08:37:17.965Z,4.50
2018-11-25T08:39:45.893Z,4.50
2018-11-25T08:42:13.901Z,4.50
2018-11-25T08:44:42.775Z,4.50
2018-11-25T08:47:10.813Z,4.50
2018-11-25T08:49:38.704Z,4.50
2018-11-25T08:52:06.647Z,4.50
2018-11-25T08:54:34.717Z,4.50
2018-11-25T08:57:03.658Z,4.40
2018-11-25T08:59:31.456Z,4.40
2018-11-25T09:02:00.243Z,4.40
2018-11-25T09:04:28.118Z,4.30
2018-11-25T09:06:55.978Z,4.20
2018-11-25T09:09:23.800Z,4.20
2018-11-25T09:11:51.678Z,4.10
2018-11-25T09:14:19.505Z,4.10
2018-11-25T09:16:47.339Z,4.10
2018-11-25T09:19:15.357Z,4.10
2018-11-25T09:21:43.239Z,4.10
2018-11-25T09:24:12.921Z,4.00
2018-11-25T09:26:40.747Z,4.10
2018-11-25T09:29:08.653Z,4.10
2018-11-25T09:31:36.549Z,4.10
2018-11-25T09:34:04.458Z,4.10
2018-11-25T09:36:32.345Z,4.10
2018-11-25T09:39:00.430Z,4.20
2018-11-25T09:41:28.405Z,4.10
2018-11-25T09:43:56.403Z,4.10
2018-11-25T09:46:24.252Z,4.00
2018-11-25T09:48:52.494Z,3.90
2018-11-25T09:51:21.365Z,3.80
2018-11-25T09:53:49.292Z,3.80
2018-11-25T09:56:17.100Z,3.80
2018-11-25T09:58:45.061Z,3.70
2018-11-25T10:01:12.907Z,3.60
2018-11-25T10:03:45.805Z,3.70
2018-11-25T10:06:13.702Z,3.80
2018-11-25T10:08:41.545Z,3.80
2018-11-25T10:11:09.558Z,3.90
2018-11-25T10:13:37.445Z,3.90
2018-11-25T10:16:06.691Z,3.90
2018-11-25T10:18:34.655Z,4.10
2018-11-25T10:21:02.547Z,4.10
2018-11-25T10:23:30.482Z,4.00
2018-11-25T10:25:58.413Z,4.00
2018-11-25T10:28:26.300Z,4.00
2018-11-25T10:30:54.161Z,4.10
2018-11-25T10:33:21.997Z,4.10
2018-11-25T10:35:49.919Z,4.10
2018-11-25T10:38:17.768Z,4.20
2018-11-25T10:40:45.666Z,4.10
2018-11-25T10:43:13.688Z,4.10
2018-11-25T10:45:46.956Z,4.10
2018-11-25T10:48:14.855Z,4.10
2018-11-25T10:50:42.895Z,4.00
2018-11-25T10:53:10.860Z,4.00
2018-11-25T10:55:40.523Z,3.90
2018-11-25T10:58:08.505Z,3.80
2018-11-25T11:00:42.035Z,3.80
2018-11-25T11:03:16.041Z,3.80
2018-11-25T11:06:52.854Z,3.80
2018-11-25T11:09:20.847Z,3.90
2018-11-25T11:11:48.723Z,4.00
2018-11-25T11:14:16.643Z,4.00
2018-11-25T11:16:44.608Z,3.90
2018-11-25T11:19:13.835Z,3.90
2018-11-25T11:21:42.110Z,3.90
2018-11-25T11:24:10.220Z,3.80
2018-11-25T11:26:39.013Z,3.70
2018-11-25T11:29:07.175Z,3.70
2018-11-25T11:31:40.463Z,3.80
2018-11-25T11:34:08.530Z,3.80
2018-11-25T11:36:36.361Z,3.80
2018-11-25T11:39:07.162Z,3.70
2018-11-25T11:41:35.120Z,3.70
2018-11-25T11:44:03.568Z,3.70
2018-11-25T11:46:31.632Z,3.70
2018-11-25T11:48:59.626Z,3.60
2018-11-25T11:51:29.246Z,3.70
2018-11-25T11:53:57.209Z,3.70
2018-11-25T11:56:25.089Z,3.70
2018-11-25T11:58:58.346Z,3.70
2018-11-25T12:01:26.328Z,3.80
2018-11-25T12:03:56.005Z,3.80
2018-11-25T12:06:24.931Z,3.90
2018-11-25T12:08:56.230Z,4.00
2018-11-25T12:11:24.112Z,4.00
2018-11-25T12:13:52.944Z,4.00
2018-11-25T12:16:20.818Z,4.00
2018-11-25T12:19:02.055Z,3.90
2018-11-25T12:21:31.727Z,4.00
2018-11-25T12:24:03.254Z,3.90
2018-11-25T12:26:31.085Z,4.10
2018-11-25T12:28:59.061Z,4.10
2018-11-25T12:31:29.346Z,4.10
2018-11-25T12:33:57.152Z,4.20
2018-11-25T12:36:25.297Z,4.20
2018-11-25T12:38:53.306Z,4.10
2018-11-25T12:41:21.107Z,4.10
2018-11-25T12:43:49.548Z,4.10
2018-11-25T12:46:17.528Z,4.10
2018-11-25T12:48:45.390Z,4.10
2018-11-25T12:51:13.262Z,4.10
2018-11-25T12:53:41.179Z,4.20
2018-11-25T12:56:09.722Z,4.10
2018-11-25T12:58:37.599Z,4.10
2018-11-25T13:01:05.631Z,4.10
2018-11-25T13:03:33.488Z,4.10
2018-11-25T13:06:01.435Z,4.10
2018-11-25T13:08:29.306Z,4.10
2018-11-25T13:10:57.348Z,4.20
2018-11-25T13:13:25.458Z,4.20
2018-11-25T13:15:53.446Z,4.30
2018-11-25T13:18:21.986Z,4.30
2018-11-25T13:20:51.535Z,4.40
2018-11-25T13:23:20.088Z,4.40
2018-11-25T13:25:47.986Z,4.50
2018-11-25T13:28:16.098Z,4.60
2018-11-25T13:30:43.953Z,4.50
2018-11-25T13:33:11.779Z,4.40
2018-11-25T13:35:40.009Z,4.40
2018-11-25T13:38:08.353Z,4.40
2018-11-25T13:40:36.205Z,4.40
2018-11-25T13:43:04.102Z,4.40
2018-11-25T13:45:31.972Z,4.40
2018-11-25T13:47:59.870Z,4.40
2018-11-25T13:50:28.020Z,4.40
2018-11-25T13:52:55.912Z,4.50
2018-11-25T13:55:28.288Z,4.50
2018-11-25T13:57:56.242Z,4.60
2018-11-25T14:00:30.102Z,4.60
2018-11-25T14:02:58.126Z,4.70
2018-11-25T14:05:27.268Z,4.70
2018-11-25T14:07:55.224Z,4.70
2018-11-25T14:10:25.241Z,4.80
2018-11-25T14:12:53.877Z,4.80
2018-11-25T14:15:22.044Z,4.80
2018-11-25T14:17:50.017Z,4.80
2018-11-25T14:20:17.975Z,4.80
2018-11-25T14:22:45.885Z,4.80
2018-11-25T14:25:20.060Z,4.80
2018-11-25T14:27:49.916Z,4.80
2018-11-25T14:30:20.192Z,4.80
2018-11-25T14:32:48.118Z,4.80
2018-11-25T14:35:23.276Z,4.80
2018-11-25T14:37:51.160Z,4.80
2018-11-25T14:40:20.295Z,4.80
2018-11-25T14:42:49.499Z,4.80
2018-11-25T14:45:21.806Z,4.80
2018-11-25T14:47:49.730Z,4.80
2018-11-25T14:50:18.744Z,4.70
2018-11-25T14:52:48.284Z,4.70
2018-11-25T14:55:18.953Z,4.70
2018-11-25T14:57:46.823Z,4.70
2018-11-25T15:00:17.634Z,4.80
2018-11-25T15:02:47.973Z,4.80
2018-11-25T15:05:20.102Z,4.80
2018-11-25T15:07:48.059Z,4.80
2018-11-25T15:10:15.980Z,4.80
2018-11-25T15:12:44.629Z,4.70
2018-11-25T15:15:13.690Z,4.70
2018-11-25T15:17:42.728Z,4.70
2018-11-25T15:20:11.753Z,4.70
2018-11-25T15:22:40.397Z,4.70
2018-11-25T15:25:14.864Z,4.70
2018-11-25T15:27:43.565Z,4.60
2018-11-25T15:30:11.724Z,4.70
2018-11-25T15:32:40.872Z,4.70
2018-11-25T15:35:13.701Z,4.60
2018-11-25T15:37:44.222Z,4.60
2018-11-25T15:40:18.845Z,4.60
2018-11-25T15:42:47.496Z,4.60
2018-11-25T15:45:20.976Z,4.60
2018-11-25T15:47:51.674Z,4.70
2018-11-25T15:50:23.939Z,4.70
2018-11-25T15:52:51.920Z,4.70
2018-11-25T15:55:20.175Z,4.60
2018-11-25T15:57:49.760Z,4.60
2018-11-25T16:00:18.937Z,4.60
2018-11-25T16:02:47.151Z,4.70
2018-11-25T16:05:18.378Z,4.70
2018-11-25T16:07:47.068Z,4.70
2018-11-25T16:10:15.020Z,4.70
2018-11-25T16:12:44.347Z,4.70
2018-11-25T16:15:14.556Z,4.70
2018-11-25T16:17:42.549Z,4.70
2018-11-25T16:20:17.864Z,4.70
2018-11-25T16:22:46.634Z,4.60
2018-11-25T16:25:22.212Z,4.60
2018-11-25T16:27:51.710Z,4.60
2018-11-25T16:30:19.905Z,4.60
2018-11-25T16:32:48.906Z,4.60
2018-11-25T16:35:17.929Z,4.60
2018-11-25T16:37:45.848Z,4.60
2018-11-25T16:40:14.869Z,4.50
2018-11-25T16:42:42.836Z,4.60
2018-11-25T16:45:14.767Z,4.70
2018-11-25T16:47:42.732Z,4.70
2018-11-25T16:50:12.066Z,4.70
2018-11-25T16:52:40.237Z,4.70
2018-11-25T16:55:09.461Z,4.70
2018-11-25T16:57:37.565Z,4.70
2018-11-25T17:00:11.412Z,4.70
2018-11-25T17:02:39.352Z,4.70
2018-11-25T17:05:09.900Z,4.70
2018-11-25T17:07:37.882Z,4.70
2018-11-25T17:10:08.636Z,4.70
2018-11-25T17:12:36.647Z,4.70
2018-11-25T17:15:11.108Z,4.70
2018-11-25T17:17:39.151Z,4.70
2018-11-25T17:20:07.843Z,4.80
2018-11-25T17:22:36.071Z,4.80
2018-11-25T17:25:08.165Z,4.80
2018-11-25T17:27:37.075Z,4.80
2018-11-25T17:30:09.323Z,4.70
2018-11-25T17:32:37.328Z,4.70
2018-11-25T17:35:11.045Z,4.70
2018-11-25T17:37:38.955Z,4.70
2018-11-25T17:40:08.675Z,4.80
2018-11-25T17:42:36.963Z,4.80
2018-11-25T17:45:06.499Z,4.80
2018-11-25T17:47:34.469Z,4.80
2018-11-25T17:50:02.567Z,4.80
2018-11-25T17:52:30.595Z,4.80
2018-11-25T17:55:04.553Z,4.80
2018-11-25T17:57:32.497Z,4.80
2018-11-25T18:00:00.582Z,4.70
2018-11-25T18:02:28.687Z,4.80
2018-11-25T18:04:56.844Z,4.80
2018-11-25T18:07:25.744Z,4.80
2018-11-25T18:09:53.817Z,4.80
2018-11-25T18:12:21.661Z,4.70
2018-11-25T18:14:49.666Z,4.70
2018-11-25T18:17:17.734Z,4.80
2018-11-25T18:19:46.374Z,4.70
2018-11-25T18:22:19.085Z,4.80
2018-11-25T18:24:47.416Z,4.70
2018-11-25T18:27:15.341Z,4.70
2018-11-25T18:29:43.351Z,4.70
2018-11-25T18:32:11.298Z,4.70
2018-11-25T18:34:39.226Z,4.70
2018-11-25T18:37:07.253Z,4.70
2018-11-25T18:39:35.279Z,4.70
2018-11-25T18:42:03.325Z,4.70
2018-11-25T18:44:31.444Z,4.70
2018-11-25T18:47:03.298Z,4.70
2018-11-25T18:49:31.577Z,4.70
2018-11-25T18:52:05.138Z,4.70
2018-11-25T18:54:28.047Z,4.70
2018-11-25T18:56:55.981Z,4.70
2018-11-25T18:59:24.213Z,4.70
2018-11-25T19:01:59.397Z,4.70
2018-11-25T19:04:27.357Z,4.70
2018-11-25T19:07:01.267Z,4.70
2018-11-25T19:09:30.333Z,4.70
2018-11-25T19:11:59.290Z,4.70
2018-11-25T19:14:30.787Z,4.70
2018-11-25T19:16:58.876Z,4.70
2018-11-25T19:19:32.590Z,4.70
2018-11-25T19:22:16.893Z,4.60
2018-11-25T19:24:46.161Z,4.60
2018-11-25T19:27:14.268Z,4.60
2018-11-25T19:29:42.329Z,4.60
2018-11-25T19:32:10.283Z,4.60
2018-11-25T19:34:41.356Z,4.60
2018-11-25T19:37:12.145Z,4.60
2018-11-25T19:39:40.599Z,4.60
2018-11-25T19:42:09.815Z,4.60
2018-11-25T19:44:46.086Z,4.50
2018-11-25T19:47:14.074Z,4.60
2018-11-25T19:49:42.217Z,4.60
2018-11-25T19:52:10.195Z,4.60
2018-11-25T19:54:43.220Z,4.60
2018-11-25T19:59:52.297Z,4.50
2018-11-25T20:02:20.748Z,4.50
2018-11-25T20:04:48.885Z,4.60
2018-11-25T20:07:17.074Z,4.60
2018-11-25T20:09:45.207Z,4.50
2018-11-25T20:12:14.107Z,4.50
2018-11-25T20:14:42.316Z,4.50
2018-11-25T20:17:19.353Z,4.50
2018-11-25T20:19:47.709Z,4.50
2018-11-25T20:22:22.515Z,4.60
2018-11-25T20:24:51.597Z,4.60
2018-11-25T20:27:28.301Z,4.60
2018-11-25T20:29:56.401Z,4.60
2018-11-25T20:32:30.437Z,4.50
2018-11-25T20:34:58.951Z,4.50
2018-11-25T20:37:27.168Z,4.50
2018-11-25T20:39:55.009Z,4.40
2018-11-25T20:42:23.881Z,4.50
2018-11-25T20:44:51.786Z,4.50
2018-11-25T20:47:19.795Z,4.50
2018-11-25T20:49:47.806Z,4.50
2018-11-25T20:52:21.405Z,4.50
2018-11-25T20:54:49.457Z,4.50
2018-11-25T20:57:18.694Z,4.50
2018-11-25T20:59:46.751Z,4.50
2018-11-25T21:02:20.235Z,4.50
2018-11-25T21:04:42.864Z,4.50
2018-11-25T21:07:11.164Z,4.50
2018-11-25T21:09:39.181Z,4.50
2018-11-25T21:12:07.199Z,4.50
2018-11-25T21:14:35.723Z,4.50
2018-11-25T21:17:03.738Z,4.50
2018-11-25T21:19:31.622Z,4.50
2018-11-25T21:21:59.812Z,4.50
2018-11-25T21:24:27.942Z,4.50
2018-11-25T21:26:55.951Z,4.50
2018-11-25T21:29:23.963Z,4.60
2018-11-25T21:31:51.899Z,4.60
2018-11-25T21:34:19.911Z,4.60
2018-11-25T21:36:47.818Z,4.60
2018-11-25T21:39:15.792Z,4.60
2018-11-25T21:41:43.791Z,4.60
2018-11-25T21:44:11.766Z,4.60
2018-11-25T21:46:39.855Z,4.60
2018-11-25T21:49:07.750Z,4.60
2018-11-25T21:51:36.445Z,4.60
2018-11-25T21:54:07.848Z,4.60
2018-11-25T21:56:35.702Z,4.60
2018-11-25T21:59:03.688Z,4.60
2018-11-25T22:01:31.602Z,4.60
2018-11-25T22:03:59.496Z,4.60
2018-11-25T22:06:27.473Z,4.60
2018-11-25T22:08:55.293Z,4.60
2018-11-25T22:11:23.144Z,4.60
2018-11-25T22:16:51.954Z,4.60
2018-11-25T22:19:30.604Z,4.60
2018-11-25T22:21:58.450Z,4.60
2018-11-25T22:24:26.330Z,4.60
2018-11-25T22:26:54.374Z,4.60
2018-11-25T22:29:22.252Z,4.60
2018-11-25T22:31:50.771Z,4.60
2018-11-25T22:34:18.646Z,4.50
2018-11-25T22:36:46.576Z,4.60
2018-11-25T22:39:14.423Z,4.60
2018-11-25T22:41:42.958Z,4.60
2018-11-25T22:44:10.848Z,4.60
2018-11-25T22:46:38.704Z,4.60
2018-11-25T22:49:06.572Z,4.60
2018-11-25T22:51:34.760Z,4.60
2018-11-25T22:54:02.576Z,4.60
2018-11-25T22:56:30.434Z,4.60
2018-11-25T22:58:58.700Z,4.70
2018-11-25T23:01:26.724Z,4.70
2018-11-25T23:04:06.764Z,4.70
2018-11-25T23:06:45.952Z,4.70
2018-11-25T23:09:13.805Z,4.60
2018-11-25T23:11:41.800Z,4.60
2018-11-25T23:14:09.675Z,4.60
2018-11-25T23:16:37.545Z,4.70
2018-11-25T23:19:06.155Z,4.70
2018-11-25T23:21:33.997Z,4.70
2018-11-25T23:24:03.618Z,4.70
2018-11-25T23:26:30.738Z,4.70
2018-11-25T23:28:58.912Z,4.70
2018-11-25T23:31:26.746Z,4.70
2018-11-25T23:33:54.792Z,4.70
2018-11-25T23:36:22.744Z,4.70
2018-11-25T23:38:51.364Z,4.70
2018-11-25T23:41:19.224Z,4.70
2018-11-25T23:43:50.784Z,4.70
2018-11-25T23:46:18.648Z,4.80
2018-11-25T23:48:46.521Z,4.70
2018-11-25T23:51:14.448Z,4.70
2018-11-25T23:53:42.286Z,4.70
2018-11-25T23:56:10.182Z,4.70
2018-11-25T23:58:38.034Z,4.70
